Weather History for Appleton, MN

Change the Weather History Date:

Friday, July 5, 2013

  Actual Average Record
Temperature  
Mean Temperature 81 °F -  
Max Temperature 91 °F 78 °F 91 °F (2002)
Min Temperature 71 °F 58 °F 46 °F (2006)
Cooling Degree Days 16    
Growing Degree Days 31 (Base 50)    
Moisture  
Dew Point 61 °F    
Average Humidity 52    
Maximum Humidity 83    
Minimum Humidity 34    
Precipitation  
Precipitation 0.00 in - - ()
Sea Level Pressure  
Sea Level Pressure 29.77 in    
Wind  
Wind Speed 8 mph (SSW)    
Max Wind Speed 15 mph    
Max Gust Speed 20 mph    
Visibility 10 miles    
Events      
Averages and records for this station are not official NWS values.
T = Trace of Precipitation, MM = Missing Value Source: NWS Daily Summary

Daily Weather History Graph

Daily Weather History Graph

Search for Another Location

Airport:

Trip Planner

Search our weather history database for the weather conditions in past years. The results will help you decide how hot, cold, wet, or windy it might be!

Date:

Astronomy

Jul. 05, 2013 Rise Set
Actual Time 5:42 AM CDT 9:14 PM CDT
Civil Twilight 5:05 AM CDT 9:51 PM CDT
Nautical Twilight 4:16 AM CDT 10:40 PM CDT
Astronomical Twilight 3:12 AM CDT 11:43 PM CDT
Moon 3:46 AM CDT (7/5) 7:07 PM CDT (7/5)
Length of Visible Light 16h 45m
Length of Day
15h 31m
Waning Crescent, 6% of the Moon is Illuminated
Jul 5
Waning Crescent
Jul 8
New
Jul 15
First Quarter
Jul 22
Full
Jul 29
Last Quarter

Hourly Weather History & Observations

Time (CDT) Temp. Heat Index Dew Point Humidity Pressure Visibility Wind Dir Wind Speed Gust Speed Precip Events Conditions
12:13 AM 77.0 °F - 57.2 °F 50% 29.79 in 10.0 mi South 11.5 mph - N/A   Clear
12:33 AM 75.2 °F - 57.2 °F 53% 29.78 in 10.0 mi South 9.2 mph - N/A   Clear
12:53 AM 75.2 °F - 57.2 °F 53% 29.79 in 10.0 mi South 9.2 mph - N/A   Clear
1:13 AM 75.2 °F - 57.2 °F 53% 29.79 in 10.0 mi SSE 9.2 mph - N/A   Clear
1:33 AM 75.2 °F - 55.4 °F 50% 29.78 in 10.0 mi South 10.4 mph - N/A   Clear
1:54 AM 75.2 °F - 55.4 °F 50% 29.79 in 10.0 mi South 11.5 mph 16.1 mph N/A   Clear
2:13 AM 75.2 °F - 55.4 °F 50% 29.79 in 10.0 mi South 10.4 mph - N/A   Clear
2:33 AM 75.2 °F - 55.4 °F 50% 29.79 in 10.0 mi South 10.4 mph - N/A   Clear
2:53 AM 73.4 °F - 57.2 °F 57% 29.79 in 10.0 mi South 9.2 mph - N/A   Clear
3:14 AM 73.4 °F - 57.2 °F 57% 29.80 in 10.0 mi South 8.1 mph - N/A   Clear
3:33 AM 73.4 °F - 55.4 °F 53% 29.79 in 10.0 mi South 8.1 mph - N/A   Clear
3:53 AM 73.4 °F - 57.2 °F 57% 29.78 in 10.0 mi South 8.1 mph - N/A   Clear
4:13 AM 73.4 °F - 55.4 °F 53% 29.78 in 10.0 mi South 9.2 mph - N/A   Clear
4:33 AM 73.4 °F - 55.4 °F 53% 29.78 in 10.0 mi South 9.2 mph - N/A   Clear
4:53 AM 73.4 °F - 55.4 °F 53% 29.78 in 10.0 mi South 9.2 mph - N/A   Clear
5:13 AM 73.4 °F - 57.2 °F 57% 29.77 in 10.0 mi SSE 8.1 mph - N/A   Clear
5:33 AM 71.6 °F - 57.2 °F 60% 29.78 in 10.0 mi SSE 8.1 mph - N/A   Clear
5:53 AM 71.6 °F - 57.2 °F 60% 29.78 in 10.0 mi SSE 6.9 mph - N/A   Clear
6:13 AM 71.6 °F - 57.2 °F 60% 29.78 in 10.0 mi SSE 6.9 mph - N/A   Clear
6:33 AM 71.6 °F - 57.2 °F 60% 29.78 in 10.0 mi SSE 5.8 mph - N/A   Clear
6:53 AM 73.4 °F - 59.0 °F 61% 29.77 in 10.0 mi SSE 4.6 mph - N/A   Scattered Clouds
7:13 AM 73.4 °F - 59.0 °F 61% 29.78 in 10.0 mi Calm Calm - N/A   Scattered Clouds
7:34 AM 73.4 °F - 59.0 °F 61% 29.78 in 10.0 mi SSE 3.5 mph - N/A   Clear
7:54 AM 75.2 °F - 59.0 °F 57% 29.78 in 10.0 mi South 6.9 mph - N/A   Clear
8:13 AM 75.2 °F - 59.0 °F 57% 29.77 in 10.0 mi South 6.9 mph - N/A   Clear
8:33 AM 77.0 °F - 60.8 °F 57% 29.78 in 10.0 mi South 8.1 mph - N/A   Clear
8:53 AM 77.0 °F - 59.0 °F 54% 29.78 in 10.0 mi South 8.1 mph - N/A   Clear
9:13 AM 78.8 °F - 57.2 °F 47% 29.77 in 10.0 mi SSW 12.7 mph - N/A   Clear
9:33 AM 78.8 °F - 59.0 °F 51% 29.78 in 10.0 mi SSW 10.4 mph 16.1 mph N/A   Clear
9:53 AM 78.8 °F - 60.8 °F 54% 29.78 in 10.0 mi SSW 6.9 mph - N/A   Clear
10:13 AM 80.6 °F 81.1 °F 59.0 °F 48% 29.77 in 10.0 mi SSW 12.7 mph - N/A   Clear
10:33 AM 82.4 °F 82.9 °F 60.8 °F 48% 29.76 in 10.0 mi SSW 10.4 mph - N/A   Clear
10:53 AM 82.4 °F 82.5 °F 59.0 °F 45% 29.77 in 10.0 mi SSW 12.7 mph 18.4 mph N/A   Clear
11:14 AM 82.4 °F 82.9 °F 60.8 °F 48% 29.77 in 7.0 mi SSW 12.7 mph - N/A   Clear
11:33 AM 84.2 °F 84.4 °F 60.8 °F 45% 29.77 in 10.0 mi WSW 11.5 mph - N/A   Clear
11:53 AM 84.2 °F 84.4 °F 60.8 °F 45% 29.77 in 10.0 mi SSW 10.4 mph 16.1 mph N/A   Clear
12:14 PM 86.0 °F 86.1 °F 60.8 °F 43% 29.76 in 10.0 mi WSW 12.7 mph - N/A   Clear
12:34 PM 87.8 °F 87.6 °F 60.8 °F 40% 29.76 in 10.0 mi WSW 13.8 mph 17.3 mph N/A   Clear
12:53 PM 87.8 °F 87.6 °F 60.8 °F 40% 29.77 in 10.0 mi WSW 15.0 mph 19.6 mph N/A   Clear
1:13 PM 87.8 °F 87.6 °F 60.8 °F 40% 29.77 in 10.0 mi WSW 12.7 mph 18.4 mph N/A   Clear
1:33 PM 87.8 °F 87.6 °F 60.8 °F 40% 29.77 in 10.0 mi West 11.5 mph - N/A   Clear
1:53 PM 87.8 °F 87.6 °F 60.8 °F 40% 29.76 in 10.0 mi WSW 8.1 mph - N/A   Clear
2:13 PM 87.8 °F 87.6 °F 60.8 °F 40% 29.76 in 10.0 mi West 6.9 mph 10.4 mph N/A   Clear
2:33 PM 89.6 °F 89.5 °F 60.8 °F 38% 29.76 in 10.0 mi WSW 10.4 mph - N/A   Clear
2:53 PM 89.6 °F 89.5 °F 60.8 °F 38% 29.76 in 10.0 mi West 8.1 mph - N/A   Clear
3:14 PM 89.6 °F 89.5 °F 60.8 °F 38% 29.76 in 10.0 mi West 8.1 mph - N/A   Clear
3:33 PM 89.6 °F 89.5 °F 60.8 °F 38% 29.75 in 10.0 mi Calm Calm - N/A   Clear
3:53 PM 91.4 °F 91.4 °F 60.8 °F 36% 29.75 in 10.0 mi WSW 5.8 mph - N/A   Clear
4:13 PM 91.4 °F 91.4 °F 60.8 °F 36% 29.75 in 10.0 mi West 4.6 mph - N/A   Clear
4:33 PM 91.4 °F 91.4 °F 60.8 °F 36% 29.75 in 10.0 mi WSW 6.9 mph - N/A   Scattered Clouds
4:53 PM 91.4 °F 90.7 °F 59.0 °F 34% 29.75 in 10.0 mi SW 5.8 mph - N/A   Scattered Clouds
5:14 PM 91.4 °F 91.4 °F 60.8 °F 36% 29.75 in 10.0 mi West 8.1 mph - N/A   Scattered Clouds
5:33 PM 91.4 °F 91.4 °F 60.8 °F 36% 29.75 in 10.0 mi West 4.6 mph - N/A   Clear
5:53 PM 91.4 °F 90.7 °F 59.0 °F 34% 29.75 in 10.0 mi West 6.9 mph - N/A   Clear
6:13 PM 89.6 °F 90.1 °F 62.6 °F 40% 29.75 in 10.0 mi WSW 4.6 mph - N/A   Clear
6:34 PM 89.6 °F 89.5 °F 60.8 °F 38% 29.75 in 10.0 mi West 5.8 mph - N/A   Clear
6:53 PM 87.8 °F 89.4 °F 64.4 °F 46% 29.75 in 10.0 mi West 3.5 mph - N/A   Clear
7:13 PM 87.8 °F 89.4 °F 64.4 °F 46% 29.75 in 10.0 mi Calm Calm - N/A   Clear
7:33 PM 87.8 °F 89.4 °F 64.4 °F 46% 29.75 in 10.0 mi Calm Calm - N/A   Clear
7:53 PM 87.8 °F 88.5 °F 62.6 °F 43% 29.75 in 10.0 mi Calm Calm - N/A   Clear
8:13 PM 86.0 °F 89.4 °F 68.0 °F 55% 29.75 in 10.0 mi Calm Calm - N/A   Clear
8:33 PM 82.4 °F 87.2 °F 71.6 °F 70% 29.75 in 10.0 mi Calm Calm - N/A   Clear
8:53 PM 80.6 °F 83.9 °F 69.8 °F 70% 29.75 in 10.0 mi Calm Calm - N/A   Clear
9:13 PM 80.6 °F 84.6 °F 71.6 °F 74% 29.76 in 10.0 mi Calm Calm - N/A   Clear
9:33 PM 78.8 °F - 69.8 °F 74% 29.76 in 10.0 mi Calm Calm - N/A   Clear
9:53 PM 77.0 °F - 71.6 °F 83% 29.77 in 10.0 mi Calm Calm - N/A   Clear
10:14 PM 77.0 °F - 69.8 °F 78% 29.78 in 10.0 mi Calm Calm - N/A   Clear
10:33 PM 75.2 °F - 68.0 °F 78% 29.79 in 10.0 mi Calm Calm - N/A   Scattered Clouds
10:53 PM 77.0 °F - 66.2 °F 69% 29.79 in 10.0 mi SSE 4.6 mph - N/A   Scattered Clouds
11:13 PM 77.0 °F - 66.2 °F 69% 29.79 in 10.0 mi SSW 3.5 mph - N/A   Scattered Clouds
11:33 PM 77.0 °F - 66.2 °F 69% 29.79 in 10.0 mi South 4.6 mph - N/A   Clear
11:53 PM 77.0 °F - 66.2 °F 69% 29.79 in 10.0 mi South 5.8 mph - N/A   Clear